createdAt,value
2022-11-18T00:01:30.160Z,1.80
2022-11-18T00:03:58.720Z,1.80
2022-11-18T00:06:30.156Z,1.80
2022-11-18T00:09:00.123Z,1.90
2022-11-18T00:11:46.471Z,1.80
2022-11-18T00:14:23.020Z,1.80
2022-11-18T00:16:53.795Z,1.80
2022-11-18T00:19:23.239Z,1.80
2022-11-18T00:21:52.756Z,1.80
2022-11-18T00:24:23.639Z,1.70
2022-11-18T00:26:52.248Z,1.70
2022-11-18T00:29:21.513Z,1.70
2022-11-18T00:31:50.416Z,1.70
2022-11-18T00:34:19.525Z,1.70
2022-11-18T00:36:49.114Z,1.70
2022-11-18T00:39:20.628Z,1.70
2022-11-18T00:42:07.144Z,1.70
2022-11-18T00:44:35.826Z,1.70
2022-11-18T00:47:04.135Z,1.70
2022-11-18T00:49:32.314Z,1.70
2022-11-18T00:52:01.137Z,1.70
2022-11-18T00:54:30.746Z,1.60
2022-11-18T00:56:59.025Z,1.60
2022-11-18T00:59:27.393Z,1.60
2022-11-18T01:01:55.629Z,1.60
2022-11-18T01:04:23.792Z,1.60
2022-11-18T01:06:52.028Z,1.60
2022-11-18T01:09:20.275Z,1.60
2022-11-18T01:12:07.121Z,1.70
2022-11-18T01:14:35.200Z,1.60
2022-11-18T01:17:03.377Z,1.60
2022-11-18T01:19:31.589Z,1.50
2022-11-18T01:22:02.939Z,1.50
2022-11-18T01:24:31.438Z,1.50
2022-11-18T01:27:01.949Z,1.40
2022-11-18T01:29:30.563Z,1.40
2022-11-18T01:32:23.568Z,1.40
2022-11-18T01:34:51.611Z,1.30
2022-11-18T01:37:19.902Z,1.30
2022-11-18T01:39:48.090Z,1.30
2022-11-18T01:42:18.918Z,1.30
2022-11-18T01:45:21.088Z,1.30
2022-11-18T01:47:56.860Z,1.30
2022-11-18T01:50:25.605Z,1.30
2022-11-18T01:52:58.631Z,1.30
2022-11-18T01:55:29.616Z,1.30
2022-11-18T01:58:06.942Z,1.30
2022-11-18T02:00:35.473Z,1.40
2022-11-18T02:03:05.819Z,1.30
2022-11-18T02:05:37.096Z,1.40
2022-11-18T02:08:07.672Z,1.20
2022-11-18T02:10:35.800Z,1.20
2022-11-18T02:13:05.619Z,1.30
2022-11-18T02:15:47.526Z,1.30
2022-11-18T02:18:25.457Z,1.30
2022-11-18T02:21:01.002Z,1.20
2022-11-18T02:23:58.392Z,1.20
2022-11-18T02:26:47.891Z,1.20
2022-11-18T02:29:20.491Z,1.10
2022-11-18T02:31:54.707Z,1.10
2022-11-18T02:34:33.424Z,1.20
2022-11-18T02:37:06.898Z,1.20
2022-11-18T02:39:39.124Z,1.20
2022-11-18T02:42:10.721Z,1.20
2022-11-18T02:44:45.036Z,1.10
2022-11-18T02:47:16.746Z,1.10
2022-11-18T02:49:49.831Z,1.10
2022-11-18T02:52:20.244Z,1.20
2022-11-18T02:54:50.789Z,1.20
2022-11-18T02:57:21.903Z,1.10
2022-11-18T02:59:51.442Z,1.10
2022-11-18T03:02:21.298Z,1.10
2022-11-18T03:04:52.689Z,1.10
2022-11-18T03:07:27.082Z,1.10
2022-11-18T03:09:56.311Z,1.00
2022-11-18T03:12:33.060Z,1.00
2022-11-18T03:15:12.677Z,0.90
2022-11-18T03:17:48.678Z,0.80
2022-11-18T03:20:22.661Z,0.80
2022-11-18T03:22:55.356Z,0.70
2022-11-18T03:25:24.650Z,0.70
2022-11-18T03:27:58.649Z,0.70
2022-11-18T03:30:31.027Z,0.70
2022-11-18T03:33:03.862Z,0.60
2022-11-18T03:35:36.231Z,0.60
2022-11-18T03:38:11.079Z,0.50
2022-11-18T03:40:42.678Z,0.50
2022-11-18T03:43:14.267Z,0.60
2022-11-18T03:45:47.999Z,0.50
2022-11-18T03:48:18.692Z,0.50
2022-11-18T03:50:49.867Z,0.50
2022-11-18T03:53:19.695Z,0.50
2022-11-18T03:55:52.282Z,0.50
2022-11-18T03:58:25.853Z,0.50
2022-11-18T04:01:00.515Z,0.40
2022-11-18T04:03:28.938Z,0.40
2022-11-18T04:06:04.530Z,0.40
2022-11-18T04:08:40.204Z,0.40
2022-11-18T04:11:35.058Z,0.40
2022-11-18T04:14:05.137Z,0.30
2022-11-18T04:16:40.633Z,0.30
2022-11-18T04:19:08.764Z,0.20
2022-11-18T04:21:36.967Z,0.30
2022-11-18T04:24:06.707Z,0.20
2022-11-18T04:26:34.820Z,0.20
2022-11-18T04:29:02.962Z,0.20
2022-11-18T04:31:31.094Z,0.20
2022-11-18T04:34:00.642Z,0.20
2022-11-18T04:36:30.872Z,0.20
2022-11-18T04:38:59.003Z,0.20
2022-11-18T04:41:47.344Z,0.20
2022-11-18T04:44:15.701Z,0.10
2022-11-18T04:46:45.416Z,0.20
2022-11-18T04:49:16.613Z,0.10
2022-11-18T04:51:46.152Z,0.20
2022-11-18T04:54:15.154Z,0.10
2022-11-18T04:56:48.684Z,0.10
2022-11-18T04:59:23.073Z,0.10
2022-11-18T05:01:51.375Z,0.10
2022-11-18T05:04:22.875Z,0.10
2022-11-18T05:06:54.659Z,0.20
2022-11-18T05:09:26.085Z,0.10
2022-11-18T05:12:15.849Z,0.20
2022-11-18T05:14:49.310Z,0.30
2022-11-18T05:17:18.765Z,0.10
2022-11-18T05:19:48.227Z,0.10
2022-11-18T05:22:16.556Z,0.10
2022-11-18T05:24:44.699Z,0.10
2022-11-18T05:27:13.174Z,0.10
2022-11-18T05:29:41.319Z,0.00
2022-11-18T05:32:11.838Z,0.10
2022-11-18T05:34:42.902Z,0.20
2022-11-18T05:37:12.759Z,0.10
2022-11-18T05:39:41.089Z,0.10
2022-11-18T05:42:32.178Z,0.10
2022-11-18T05:45:00.356Z,0.00
2022-11-18T05:47:48.596Z,0.00
2022-11-18T05:50:21.312Z,0.10
2022-11-18T05:52:51.163Z,0.10
2022-11-18T05:55:20.701Z,0.10
2022-11-18T05:57:49.560Z,0.00
2022-11-18T06:00:18.935Z,0.10
2022-11-18T06:02:50.206Z,0.10
2022-11-18T06:05:19.862Z,0.10
2022-11-18T06:07:48.059Z,0.00
2022-11-18T06:10:21.564Z,0.00
2022-11-18T06:12:51.983Z,0.00
2022-11-18T06:15:22.443Z,0.10
2022-11-18T06:17:56.012Z,0.10
2022-11-18T06:20:24.260Z,0.10
2022-11-18T06:22:55.925Z,0.10
2022-11-18T06:25:26.059Z,0.00
2022-11-18T06:27:57.343Z,0.00
2022-11-18T06:30:25.552Z,0.00
2022-11-18T06:32:53.720Z,0.10
2022-11-18T06:35:21.880Z,0.10
2022-11-18T06:37:50.092Z,0.10
2022-11-18T06:40:18.754Z,0.00
2022-11-18T06:43:05.803Z,0.00
2022-11-18T06:45:33.949Z,0.00
2022-11-18T06:48:02.203Z,0.00
2022-11-18T06:50:30.707Z,0.00
2022-11-18T06:53:01.671Z,-0.10
2022-11-18T06:55:29.719Z,-0.10
2022-11-18T06:57:59.342Z,-0.20
2022-11-18T07:00:27.449Z,-0.20
2022-11-18T07:02:55.650Z,-0.10
2022-11-18T07:05:23.821Z,-0.20
2022-11-18T07:07:52.156Z,-0.20
2022-11-18T07:10:21.556Z,-0.10
2022-11-18T07:12:49.668Z,-0.20
2022-11-18T07:15:19.177Z,-0.20
2022-11-18T07:17:47.492Z,-0.20
2022-11-18T07:20:15.900Z,-0.20
2022-11-18T07:22:44.172Z,-0.20
2022-11-18T07:25:12.265Z,-0.30
2022-11-18T07:27:40.430Z,-0.20
2022-11-18T07:30:09.615Z,-0.20
2022-11-18T07:32:41.419Z,-0.30
2022-11-18T07:35:10.623Z,-0.20
2022-11-18T07:37:41.166Z,-0.30
2022-11-18T07:40:10.955Z,-0.20
2022-11-18T07:42:43.600Z,-0.20
2022-11-18T07:45:24.604Z,-0.20
2022-11-18T07:47:54.134Z,-0.20
2022-11-18T07:50:22.439Z,-0.20
2022-11-18T07:52:50.548Z,-0.20
2022-11-18T07:55:18.712Z,-0.20
2022-11-18T07:57:46.915Z,-0.10
2022-11-18T08:00:15.957Z,-0.10
2022-11-18T08:02:44.465Z,0.00
2022-11-18T08:05:17.894Z,-0.10
2022-11-18T08:07:46.606Z,-0.10
2022-11-18T08:10:14.898Z,-0.10
2022-11-18T08:12:42.998Z,0.00
2022-11-18T08:15:13.205Z,-0.20
2022-11-18T08:17:41.409Z,-0.10
2022-11-18T08:20:10.457Z,-0.10
2022-11-18T08:22:40.011Z,-0.10
2022-11-18T08:25:09.393Z,-0.10
2022-11-18T08:27:37.609Z,-0.10
2022-11-18T08:30:06.629Z,-0.20
2022-11-18T08:32:34.849Z,-0.10
2022-11-18T08:35:07.989Z,-0.20
2022-11-18T08:37:40.508Z,-0.20
2022-11-18T08:40:09.547Z,-0.20
2022-11-18T08:42:38.511Z,-0.30
2022-11-18T08:45:08.866Z,-0.30
2022-11-18T08:47:37.354Z,-0.30
2022-11-18T08:50:06.721Z,-0.40
2022-11-18T08:52:35.270Z,-0.40
2022-11-18T08:55:05.829Z,-0.50
2022-11-18T08:57:34.094Z,-0.40
2022-11-18T09:00:02.278Z,-0.40
2022-11-18T09:02:30.350Z,-0.50
2022-11-18T09:05:00.678Z,-0.50
2022-11-18T09:07:28.891Z,-0.40
2022-11-18T09:09:57.448Z,-0.60
2022-11-18T09:12:27.074Z,-0.50
2022-11-18T09:17:43.617Z,-0.40
2022-11-18T09:20:12.212Z,-0.40
2022-11-18T09:22:40.387Z,-0.40
2022-11-18T09:25:09.669Z,-0.50
2022-11-18T09:27:39.363Z,-0.60
2022-11-18T09:30:08.661Z,-0.60
2022-11-18T09:32:36.834Z,-0.50
2022-11-18T09:35:05.809Z,-0.50
2022-11-18T09:37:34.620Z,-0.50
2022-11-18T09:40:06.137Z,-0.50
2022-11-18T09:42:51.532Z,-0.50
2022-11-18T09:45:25.804Z,-0.50
2022-11-18T09:47:58.070Z,-0.50
2022-11-18T09:50:48.364Z,-0.40
2022-11-18T09:53:20.989Z,-0.30
2022-11-18T09:55:50.987Z,-0.50
2022-11-18T09:58:32.393Z,-0.40
2022-11-18T10:01:01.107Z,-0.30
2022-11-18T10:03:31.643Z,-0.30
2022-11-18T10:06:07.103Z,-0.30
2022-11-18T10:08:41.221Z,-0.30
2022-11-18T10:11:15.613Z,-0.40
2022-11-18T10:13:56.194Z,-0.50
2022-11-18T10:16:34.827Z,-0.60
2022-11-18T10:19:12.361Z,-0.60
2022-11-18T10:21:52.501Z,-0.50
2022-11-18T10:24:23.774Z,-0.60
2022-11-18T10:26:57.156Z,-0.60
2022-11-18T10:29:27.146Z,-0.50
2022-11-18T10:32:04.277Z,-0.50
2022-11-18T10:34:33.796Z,-0.50
2022-11-18T10:37:03.636Z,-0.40
2022-11-18T10:39:31.845Z,-0.50
2022-11-18T10:42:04.100Z,-0.30
2022-11-18T10:44:36.657Z,-0.50
2022-11-18T10:47:29.238Z,-0.50
2022-11-18T10:50:00.072Z,-0.40
2022-11-18T10:52:29.761Z,-0.50
2022-11-18T10:55:22.029Z,-0.40
2022-11-18T10:57:53.430Z,-0.30
2022-11-18T11:00:42.441Z,-0.30
2022-11-18T11:03:36.344Z,-0.30
2022-11-18T11:06:38.693Z,-0.30
2022-11-18T11:09:09.699Z,-0.30
2022-11-18T11:11:40.046Z,-0.30
2022-11-18T11:14:18.889Z,-0.40
2022-11-18T11:17:09.934Z,-0.30
2022-11-18T11:19:52.242Z,-0.20
2022-11-18T11:22:20.793Z,-0.20
2022-11-18T11:24:49.047Z,-0.30
2022-11-18T11:30:21.931Z,-0.20
2022-11-18T11:33:19.811Z,-0.20
2022-11-18T11:36:08.158Z,-0.30
2022-11-18T11:38:50.066Z,-0.10
2022-11-18T11:41:23.973Z,0.00
2022-11-18T11:44:13.347Z,0.00
2022-11-18T11:47:09.157Z,-0.10
2022-11-18T11:49:55.020Z,0.00
2022-11-18T11:52:34.125Z,0.00
2022-11-18T11:55:18.046Z,-0.10
2022-11-18T11:57:59.750Z,0.00
2022-11-18T12:00:28.833Z,0.00
2022-11-18T12:03:12.687Z,0.10
2022-11-18T12:05:43.177Z,0.20
2022-11-18T12:08:17.329Z,0.10
2022-11-18T12:10:50.032Z,0.10
2022-11-18T12:13:32.771Z,0.00
2022-11-18T12:16:12.399Z,0.20
2022-11-18T12:18:44.745Z,0.30
2022-11-18T12:21:46.701Z,0.20
2022-11-18T12:24:35.697Z,0.40
2022-11-18T12:27:06.858Z,0.40
2022-11-18T12:29:43.026Z,0.30
2022-11-18T12:32:30.970Z,0.30
2022-11-18T12:35:02.362Z,0.20
2022-11-18T12:38:01.643Z,0.00
2022-11-18T12:40:37.711Z,0.00
2022-11-18T12:43:24.155Z,0.10
2022-11-18T12:45:55.379Z,0.00
2022-11-18T12:48:40.304Z,0.00
2022-11-18T12:51:46.122Z,0.10
2022-11-18T12:54:27.509Z,-0.10
2022-11-18T12:57:00.536Z,-0.20
2022-11-18T12:59:33.758Z,-0.10
2022-11-18T13:02:21.836Z,0.10
2022-11-18T13:05:07.800Z,0.00
2022-11-18T13:08:01.676Z,0.00
2022-11-18T13:10:36.120Z,0.10
2022-11-18T13:13:06.988Z,0.00
2022-11-18T13:15:59.960Z,0.00
2022-11-18T13:18:28.363Z,0.00
2022-11-18T13:20:58.289Z,0.00
2022-11-18T13:23:46.994Z,0.00
2022-11-18T13:26:29.287Z,0.00
2022-11-18T13:29:16.877Z,0.10
2022-11-18T13:31:55.360Z,0.00
2022-11-18T13:34:25.986Z,0.10
2022-11-18T13:36:55.661Z,0.10
2022-11-18T13:39:26.262Z,0.10
2022-11-18T13:42:01.767Z,0.00
2022-11-18T13:44:35.572Z,0.10
2022-11-18T13:47:10.669Z,0.20
2022-11-18T13:49:50.614Z,0.00
2022-11-18T13:52:24.160Z,0.00
2022-11-18T13:54:54.571Z,-0.10
2022-11-18T13:57:26.475Z,-0.10
2022-11-18T13:59:56.358Z,0.00
2022-11-18T14:02:24.876Z,0.00
2022-11-18T14:04:57.432Z,-0.10
2022-11-18T14:07:34.086Z,0.00
2022-11-18T14:10:04.405Z,0.00
2022-11-18T14:12:34.088Z,-0.10
2022-11-18T14:15:22.229Z,-0.10
2022-11-18T14:17:56.109Z,-0.10
2022-11-18T14:20:25.398Z,0.00
2022-11-18T14:22:56.953Z,0.00
2022-11-18T14:25:29.359Z,0.00
2022-11-18T14:28:11.325Z,0.00
2022-11-18T14:30:41.807Z,0.00
2022-11-18T14:33:15.044Z,0.10
2022-11-18T14:35:45.512Z,0.00
2022-11-18T14:38:36.546Z,0.00
2022-11-18T14:41:07.143Z,0.10
2022-11-18T14:43:37.384Z,0.00
2022-11-18T14:46:13.540Z,0.00
2022-11-18T14:48:41.838Z,0.00
2022-11-18T14:51:13.848Z,0.00
2022-11-18T14:53:42.326Z,0.00
2022-11-18T14:56:16.349Z,-0.10
2022-11-18T14:58:44.507Z,-0.10
2022-11-18T15:01:14.485Z,-0.20
2022-11-18T15:03:42.745Z,-0.20
2022-11-18T15:06:15.201Z,-0.20
2022-11-18T15:08:43.988Z,-0.30
2022-11-18T15:11:12.667Z,-0.20
2022-11-18T15:13:41.020Z,-0.20
2022-11-18T15:16:16.924Z,-0.20
2022-11-18T15:18:47.749Z,-0.30
2022-11-18T15:21:16.349Z,-0.30
2022-11-18T15:23:44.793Z,-0.30
2022-11-18T15:26:19.620Z,-0.30
2022-11-18T15:28:48.320Z,-0.40
2022-11-18T15:31:18.834Z,-0.40
2022-11-18T15:33:48.465Z,-0.40
2022-11-18T15:36:18.752Z,-0.40
2022-11-18T15:38:47.557Z,-0.50
2022-11-18T15:41:18.540Z,-0.50
2022-11-18T15:43:46.992Z,-0.50
2022-11-18T15:46:17.289Z,-0.50
2022-11-18T15:48:45.436Z,-0.40
2022-11-18T15:51:13.846Z,-0.50
2022-11-18T15:53:42.060Z,-0.50
2022-11-18T15:56:24.498Z,-0.40
2022-11-18T15:58:56.797Z,-0.50
2022-11-18T16:01:28.225Z,-0.50
2022-11-18T16:03:59.120Z,-0.50
2022-11-18T16:06:27.833Z,-0.60
2022-11-18T16:09:00.031Z,-0.60
2022-11-18T16:11:46.283Z,-0.50
2022-11-18T16:14:16.855Z,-0.50
2022-11-18T16:16:47.828Z,-0.50
2022-11-18T16:19:17.408Z,-0.50
2022-11-18T16:21:49.332Z,-0.60
2022-11-18T16:24:19.753Z,-0.70
2022-11-18T16:26:48.249Z,-0.60
2022-11-18T16:29:17.838Z,-0.60
2022-11-18T16:31:52.289Z,-0.60
2022-11-18T16:34:22.197Z,-0.60
2022-11-18T16:36:52.013Z,-0.70
2022-11-18T16:39:24.911Z,-0.70
2022-11-18T16:41:53.972Z,-0.70
2022-11-18T16:44:22.275Z,-0.60
2022-11-18T16:46:54.257Z,-0.60
2022-11-18T16:49:24.378Z,-0.60
2022-11-18T16:51:55.112Z,-0.70
2022-11-18T16:54:24.333Z,-0.70
2022-11-18T16:56:54.639Z,-0.70
2022-11-18T16:59:26.742Z,-0.90
2022-11-18T17:01:58.013Z,-0.80
2022-11-18T17:04:28.641Z,-0.80
2022-11-18T17:06:59.738Z,-0.80
2022-11-18T17:09:28.168Z,-0.80
2022-11-18T17:11:58.447Z,-0.90
2022-11-18T17:14:27.121Z,-0.90
2022-11-18T17:16:59.083Z,-0.90
2022-11-18T17:19:27.203Z,-1.10
2022-11-18T17:21:55.738Z,-1.00
2022-11-18T17:24:25.404Z,-0.90
2022-11-18T17:26:54.490Z,-1.10
2022-11-18T17:29:22.664Z,-0.90
2022-11-18T17:31:51.003Z,-0.80
2022-11-18T17:34:23.113Z,-0.90
2022-11-18T17:36:51.658Z,-1.00
2022-11-18T17:39:20.779Z,-0.90
2022-11-18T17:42:06.642Z,-0.90
2022-11-18T17:44:34.765Z,-0.90
2022-11-18T17:47:03.507Z,-0.90
2022-11-18T17:49:33.152Z,-0.80
2022-11-18T17:52:01.280Z,-1.00
2022-11-18T17:54:29.428Z,-1.30
2022-11-18T17:56:57.657Z,-1.00
2022-11-18T17:59:25.799Z,-1.00
2022-11-18T18:01:58.975Z,-0.80
2022-11-18T18:04:28.063Z,-1.00
2022-11-18T18:06:57.657Z,-0.90
2022-11-18T18:09:30.497Z,-0.90
2022-11-18T18:11:59.974Z,-0.90
2022-11-18T18:14:27.233Z,-0.80
2022-11-18T18:16:55.605Z,-0.80
2022-11-18T18:19:24.625Z,-0.70
2022-11-18T18:21:53.416Z,-0.80
2022-11-18T18:24:24.025Z,-0.80
2022-11-18T18:26:52.133Z,-0.80
2022-11-18T18:29:20.319Z,-0.70
2022-11-18T18:31:48.530Z,-0.80
2022-11-18T18:34:17.290Z,-0.70
2022-11-18T18:36:47.796Z,-0.80
2022-11-18T18:39:16.142Z,-0.90
2022-11-18T18:41:45.756Z,-1.00
2022-11-18T18:44:18.607Z,-1.00
2022-11-18T18:46:45.965Z,-0.90
2022-11-18T18:49:15.340Z,-0.90
2022-11-18T18:51:45.221Z,-0.80
2022-11-18T18:54:15.477Z,-0.80
2022-11-18T18:56:45.869Z,-0.80
2022-11-18T18:59:15.083Z,-0.80
2022-11-18T19:01:43.389Z,-0.90
2022-11-18T19:04:14.085Z,-1.00
2022-11-18T19:07:01.287Z,-0.90
2022-11-18T19:09:29.624Z,-1.00
2022-11-18T19:12:16.585Z,-1.00
2022-11-18T19:14:44.883Z,-1.00
2022-11-18T19:17:13.469Z,-1.10
2022-11-18T19:20:00.525Z,-1.00
2022-11-18T19:22:31.213Z,-1.20
2022-11-18T19:25:02.422Z,-1.20
2022-11-18T19:27:31.980Z,-1.30
2022-11-18T19:30:00.670Z,-1.30
2022-11-18T19:32:28.893Z,-1.30
2022-11-18T19:34:57.127Z,-1.20
2022-11-18T19:37:25.253Z,-1.30
2022-11-18T19:39:56.088Z,-1.30
2022-11-18T19:42:24.351Z,-1.30
2022-11-18T19:44:54.210Z,-1.20
2022-11-18T19:47:22.392Z,-1.30
2022-11-18T19:49:50.503Z,-1.40
2022-11-18T19:52:18.846Z,-1.20
2022-11-18T19:54:47.066Z,-1.20
2022-11-18T19:57:15.693Z,-1.30
2022-11-18T19:59:46.395Z,-1.20
2022-11-18T20:02:16.088Z,-1.20
2022-11-18T20:05:04.583Z,-1.10
2022-11-18T20:07:32.713Z,-1.40
2022-11-18T20:10:01.897Z,-1.50
2022-11-18T20:12:35.265Z,-1.60
2022-11-18T20:15:05.247Z,-1.80
2022-11-18T20:17:34.745Z,-1.90
2022-11-18T20:20:03.072Z,-1.60
2022-11-18T20:22:31.430Z,-1.60
2022-11-18T20:25:01.336Z,-1.70
2022-11-18T20:27:29.618Z,-1.60
2022-11-18T20:29:57.783Z,-1.60
2022-11-18T20:32:25.866Z,-1.70
2022-11-18T20:34:55.466Z,-1.90
2022-11-18T20:37:27.860Z,-1.90
2022-11-18T20:39:56.593Z,-2.00
2022-11-18T20:42:44.125Z,-2.10
2022-11-18T20:45:12.623Z,-1.90
2022-11-18T20:47:40.806Z,-2.10
2022-11-18T20:50:10.660Z,-2.30
2022-11-18T20:52:38.769Z,-2.40
2022-11-18T20:55:07.465Z,-2.30
2022-11-18T20:57:36.976Z,-2.40
2022-11-18T21:00:06.404Z,-2.20
2022-11-18T21:02:34.628Z,-1.90
2022-11-18T21:05:02.864Z,-1.90
2022-11-18T21:07:33.761Z,-1.80
2022-11-18T21:10:02.479Z,-2.00
2022-11-18T21:12:30.810Z,-1.80
2022-11-18T21:14:57.921Z,-1.60
2022-11-18T21:17:26.182Z,-1.60
2022-11-18T21:19:54.374Z,-1.50
2022-11-18T21:22:21.606Z,-1.50
2022-11-18T21:24:53.657Z,-1.50
2022-11-18T21:27:22.259Z,-1.50
2022-11-18T21:29:50.704Z,-1.50
2022-11-18T21:32:18.928Z,-1.40
2022-11-18T21:34:47.119Z,-1.40
2022-11-18T21:37:15.382Z,-1.50
2022-11-18T21:39:46.364Z,-1.60
2022-11-18T21:42:16.967Z,-1.50
2022-11-18T21:44:45.273Z,-1.50
2022-11-18T21:47:13.487Z,-1.50
2022-11-18T21:49:41.627Z,-1.50
2022-11-18T21:52:10.066Z,-1.70
2022-11-18T21:54:38.351Z,-1.70
2022-11-18T21:57:06.486Z,-1.70
2022-11-18T21:59:36.043Z,-1.60
2022-11-18T22:02:04.195Z,-1.70
2022-11-18T22:04:49.715Z,-1.90
2022-11-18T22:07:17.889Z,-2.00
2022-11-18T22:09:46.124Z,-2.00
2022-11-18T22:12:14.342Z,-2.00
2022-11-18T22:14:43.994Z,-2.30
2022-11-18T22:17:12.131Z,-2.50
2022-11-18T22:19:40.180Z,-2.80
2022-11-18T22:22:08.349Z,-2.90
2022-11-18T22:24:36.468Z,-2.80
2022-11-18T22:27:09.921Z,-2.70
2022-11-18T22:29:39.478Z,-2.50
2022-11-18T22:32:11.457Z,-2.10
2022-11-18T22:34:39.627Z,-2.10
2022-11-18T22:37:07.907Z,-2.30
2022-11-18T22:39:36.036Z,-2.50
2022-11-18T22:42:21.465Z,-2.50
2022-11-18T22:44:51.908Z,-2.40
2022-11-18T22:47:21.434Z,-2.40
2022-11-18T22:49:53.499Z,-2.40
2022-11-18T22:52:24.316Z,-2.50
2022-11-18T22:54:52.472Z,-2.60
2022-11-18T22:57:20.742Z,-2.70
2022-11-18T22:59:48.847Z,-2.80
2022-11-18T23:02:16.996Z,-3.00
2022-11-18T23:04:46.363Z,-3.20
2022-11-18T23:07:14.544Z,-3.30
2022-11-18T23:09:42.665Z,-3.30
2022-11-18T23:12:28.122Z,-3.50
2022-11-18T23:14:56.422Z,-3.60
2022-11-18T23:17:24.568Z,-3.70
2022-11-18T23:19:54.104Z,-3.70
2022-11-18T23:22:22.236Z,-3.80
2022-11-18T23:24:50.365Z,-3.90
2022-11-18T23:27:18.489Z,-3.90
2022-11-18T23:29:46.588Z,-3.90
2022-11-18T23:32:14.740Z,-3.80
2022-11-18T23:34:42.879Z,-3.80
2022-11-18T23:37:13.583Z,-3.90
2022-11-18T23:39:41.730Z,-3.70
2022-11-18T23:42:09.891Z,-3.70
2022-11-18T23:44:47.181Z,-3.80
2022-11-18T23:47:17.623Z,-3.80
2022-11-18T23:49:45.761Z,-3.70
2022-11-18T23:52:15.864Z,-3.70
2022-11-18T23:54:43.981Z,-3.60
2022-11-18T23:57:12.236Z,-3.50
2022-11-18T23:59:40.390Z,-3.60
